sensor_id;sensor_type;location;lat;lon;timestamp;P1;durP1;ratioP1;P2;durP2;ratioP2
57627;SDS011;43451;49.060;10.616;2023-03-14T00:01:19;2.85;;;0.60;;
57627;SDS011;43451;49.060;10.616;2023-03-14T00:03:48;0.75;;;0.50;;
57627;SDS011;43451;49.060;10.616;2023-03-14T00:06:15;1.10;;;0.43;;
57627;SDS011;43451;49.060;10.616;2023-03-14T00:08:41;1.90;;;0.50;;
57627;SDS011;43451;49.060;10.616;2023-03-14T00:11:09;0.67;;;0.40;;
57627;SDS011;43451;49.060;10.616;2023-03-14T00:13:36;0.82;;;0.50;;
57627;SDS011;43451;49.060;10.616;2023-03-14T00:16:06;1.48;;;0.70;;
57627;SDS011;43451;49.060;10.616;2023-03-14T00:18:34;1.23;;;0.40;;
57627;SDS011;43451;49.060;10.616;2023-03-14T00:21:00;0.90;;;0.50;;
57627;SDS011;43451;49.060;10.616;2023-03-14T00:23:30;0.50;;;0.45;;
57627;SDS011;43451;49.060;10.616;2023-03-14T00:26:01;0.45;;;0.30;;
57627;SDS011;43451;49.060;10.616;2023-03-14T00:28:28;0.40;;;0.20;;
57627;SDS011;43451;49.060;10.616;2023-03-14T00:30:54;0.32;;;0.30;;
57627;SDS011;43451;49.060;10.616;2023-03-14T00:33:20;0.68;;;0.20;;
57627;SDS011;43451;49.060;10.616;2023-03-14T00:35:53;1.05;;;0.30;;
57627;SDS011;43451;49.060;10.616;2023-03-14T00:38:23;1.98;;;0.25;;
57627;SDS011;43451;49.060;10.616;2023-03-14T00:40:50;0.80;;;0.38;;
57627;SDS011;43451;49.060;10.616;2023-03-14T00:43:16;0.40;;;0.30;;
57627;SDS011;43451;49.060;10.616;2023-03-14T00:45:42;0.45;;;0.30;;
57627;SDS011;43451;49.060;10.616;2023-03-14T00:48:08;0.32;;;0.20;;
57627;SDS011;43451;49.060;10.616;2023-03-14T00:50:33;0.30;;;0.20;;
57627;SDS011;43451;49.060;10.616;2023-03-14T00:52:59;0.20;;;0.20;;
57627;SDS011;43451;49.060;10.616;2023-03-14T00:55:24;0.60;;;0.38;;
57627;SDS011;43451;49.060;10.616;2023-03-14T00:57:50;1.45;;;0.22;;
57627;SDS011;43451;49.060;10.616;2023-03-14T01:00:15;0.68;;;0.25;;
57627;SDS011;43451;49.060;10.616;2023-03-14T01:02:41;1.50;;;0.40;;
57627;SDS011;43451;49.060;10.616;2023-03-14T01:05:06;0.40;;;0.30;;
57627;SDS011;43451;49.060;10.616;2023-03-14T01:07:35;1.63;;;0.40;;
57627;SDS011;43451;49.060;10.616;2023-03-14T01:10:01;0.30;;;0.30;;
57627;SDS011;43451;49.060;10.616;2023-03-14T01:12:27;0.52;;;0.30;;
57627;SDS011;43451;49.060;10.616;2023-03-14T01:14:52;0.95;;;0.28;;
57627;SDS011;43451;49.060;10.616;2023-03-14T01:17:17;0.88;;;0.30;;
57627;SDS011;43451;49.060;10.616;2023-03-14T01:19:43;1.17;;;0.38;;
57627;SDS011;43451;49.060;10.616;2023-03-14T01:22:08;0.77;;;0.25;;
57627;SDS011;43451;49.060;10.616;2023-03-14T01:24:34;0.50;;;0.30;;
57627;SDS011;43451;49.060;10.616;2023-03-14T01:27:01;0.50;;;0.30;;
57627;SDS011;43451;49.060;10.616;2023-03-14T01:29:26;0.28;;;0.28;;
57627;SDS011;43451;49.060;10.616;2023-03-14T01:31:52;0.22;;;0.20;;
57627;SDS011;43451;49.060;10.616;2023-03-14T01:34:17;1.15;;;0.30;;
57627;SDS011;43451;49.060;10.616;2023-03-14T01:36:43;1.00;;;0.40;;
57627;SDS011;43451;49.060;10.616;2023-03-14T01:39:08;0.82;;;0.32;;
57627;SDS011;43451;49.060;10.616;2023-03-14T01:41:34;0.30;;;0.30;;
57627;SDS011;43451;49.060;10.616;2023-03-14T01:44:00;0.45;;;0.30;;
57627;SDS011;43451;49.060;10.616;2023-03-14T01:46:28;0.43;;;0.30;;
57627;SDS011;43451;49.060;10.616;2023-03-14T01:51:30;0.30;;;0.30;;
57627;SDS011;43451;49.060;10.616;2023-03-14T01:54:00;0.85;;;0.30;;
57627;SDS011;43451;49.060;10.616;2023-03-14T01:56:31;0.28;;;0.22;;
57627;SDS011;43451;49.060;10.616;2023-03-14T01:58:57;2.72;;;0.47;;
57627;SDS011;43451;49.060;10.616;2023-03-14T02:01:24;0.55;;;0.20;;
57627;SDS011;43451;49.060;10.616;2023-03-14T02:03:55;0.60;;;0.20;;
57627;SDS011;43451;49.060;10.616;2023-03-14T02:06:24;0.40;;;0.30;;
57627;SDS011;43451;49.060;10.616;2023-03-14T02:08:54;0.70;;;0.30;;
57627;SDS011;43451;49.060;10.616;2023-03-14T02:11:20;0.13;;;0.13;;
57627;SDS011;43451;49.060;10.616;2023-03-14T02:13:46;0.20;;;0.20;;
57627;SDS011;43451;49.060;10.616;2023-03-14T02:16:13;0.90;;;0.30;;
57627;SDS011;43451;49.060;10.616;2023-03-14T02:18:39;1.05;;;0.30;;
57627;SDS011;43451;49.060;10.616;2023-03-14T02:21:08;1.27;;;0.30;;
57627;SDS011;43451;49.060;10.616;2023-03-14T02:23:58;0.20;;;0.20;;
57627;SDS011;43451;49.060;10.616;2023-03-14T02:29:28;0.45;;;0.22;;
57627;SDS011;43451;49.060;10.616;2023-03-14T02:31:56;0.88;;;0.20;;
57627;SDS011;43451;49.060;10.616;2023-03-14T02:34:22;0.50;;;0.22;;
57627;SDS011;43451;49.060;10.616;2023-03-14T02:36:48;0.20;;;0.20;;
57627;SDS011;43451;49.060;10.616;2023-03-14T02:39:15;1.15;;;0.30;;
57627;SDS011;43451;49.060;10.616;2023-03-14T02:41:51;0.73;;;0.30;;
57627;SDS011;43451;49.060;10.616;2023-03-14T02:44:17;0.22;;;0.22;;
57627;SDS011;43451;49.060;10.616;2023-03-14T02:46:42;0.30;;;0.30;;
57627;SDS011;43451;49.060;10.616;2023-03-14T02:49:08;0.20;;;0.20;;
57627;SDS011;43451;49.060;10.616;2023-03-14T02:51:37;0.20;;;0.20;;
57627;SDS011;43451;49.060;10.616;2023-03-14T02:56:58;0.30;;;0.30;;
57627;SDS011;43451;49.060;10.616;2023-03-14T02:59:24;0.40;;;0.20;;
57627;SDS011;43451;49.060;10.616;2023-03-14T03:01:49;0.10;;;0.10;;
57627;SDS011;43451;49.060;10.616;2023-03-14T03:04:14;0.28;;;0.20;;
57627;SDS011;43451;49.060;10.616;2023-03-14T03:06:40;0.10;;;0.10;;
57627;SDS011;43451;49.060;10.616;2023-03-14T03:09:05;0.30;;;0.30;;
57627;SDS011;43451;49.060;10.616;2023-03-14T03:11:31;0.20;;;0.10;;
57627;SDS011;43451;49.060;10.616;2023-03-14T03:13:56;0.75;;;0.10;;
57627;SDS011;43451;49.060;10.616;2023-03-14T03:16:22;0.22;;;0.10;;
57627;SDS011;43451;49.060;10.616;2023-03-14T03:18:47;0.52;;;0.20;;
57627;SDS011;43451;49.060;10.616;2023-03-14T03:21:12;0.20;;;0.20;;
57627;SDS011;43451;49.060;10.616;2023-03-14T03:23:38;1.40;;;0.28;;
57627;SDS011;43451;49.060;10.616;2023-03-14T03:26:03;0.10;;;0.10;;
57627;SDS011;43451;49.060;10.616;2023-03-14T03:28:29;0.20;;;0.20;;
57627;SDS011;43451;49.060;10.616;2023-03-14T03:30:54;0.30;;;0.20;;
57627;SDS011;43451;49.060;10.616;2023-03-14T03:33:20;0.10;;;0.10;;
57627;SDS011;43451;49.060;10.616;2023-03-14T03:35:50;0.10;;;0.10;;
57627;SDS011;43451;49.060;10.616;2023-03-14T03:38:16;0.20;;;0.20;;
57627;SDS011;43451;49.060;10.616;2023-03-14T03:40:41;0.85;;;0.20;;
57627;SDS011;43451;49.060;10.616;2023-03-14T03:43:07;0.10;;;0.10;;
57627;SDS011;43451;49.060;10.616;2023-03-14T03:45:33;0.10;;;0.10;;
57627;SDS011;43451;49.060;10.616;2023-03-14T03:47:59;0.30;;;0.20;;
57627;SDS011;43451;49.060;10.616;2023-03-14T03:50:24;0.17;;;0.13;;
57627;SDS011;43451;49.060;10.616;2023-03-14T03:52:50;0.20;;;0.20;;
57627;SDS011;43451;49.060;10.616;2023-03-14T03:55:15;0.82;;;0.20;;
57627;SDS011;43451;49.060;10.616;2023-03-14T03:57:40;0.20;;;0.20;;
57627;SDS011;43451;49.060;10.616;2023-03-14T04:00:06;0.20;;;0.20;;
57627;SDS011;43451;49.060;10.616;2023-03-14T04:02:34;0.32;;;0.20;;
57627;SDS011;43451;49.060;10.616;2023-03-14T04:04:59;0.32;;;0.30;;
57627;SDS011;43451;49.060;10.616;2023-03-14T04:07:25;0.30;;;0.30;;
57627;SDS011;43451;49.060;10.616;2023-03-14T04:09:50;1.45;;;0.32;;
57627;SDS011;43451;49.060;10.616;2023-03-14T04:12:15;0.30;;;0.30;;
57627;SDS011;43451;49.060;10.616;2023-03-14T04:14:41;1.40;;;0.30;;
57627;SDS011;43451;49.060;10.616;2023-03-14T04:17:07;0.30;;;0.30;;
57627;SDS011;43451;49.060;10.616;2023-03-14T04:19:32;0.30;;;0.30;;
57627;SDS011;43451;49.060;10.616;2023-03-14T04:21:58;0.35;;;0.30;;
57627;SDS011;43451;49.060;10.616;2023-03-14T04:24:23;0.70;;;0.30;;
57627;SDS011;43451;49.060;10.616;2023-03-14T04:26:49;0.30;;;0.28;;
57627;SDS011;43451;49.060;10.616;2023-03-14T04:29:14;0.40;;;0.40;;
57627;SDS011;43451;49.060;10.616;2023-03-14T04:31:40;0.60;;;0.40;;
57627;SDS011;43451;49.060;10.616;2023-03-14T04:34:05;1.00;;;0.30;;
57627;SDS011;43451;49.060;10.616;2023-03-14T04:36:30;0.40;;;0.28;;
57627;SDS011;43451;49.060;10.616;2023-03-14T04:38:56;0.20;;;0.20;;
57627;SDS011;43451;49.060;10.616;2023-03-14T04:41:21;0.60;;;0.32;;
57627;SDS011;43451;49.060;10.616;2023-03-14T04:43:47;2.47;;;0.50;;
57627;SDS011;43451;49.060;10.616;2023-03-14T04:46:12;0.20;;;0.20;;
57627;SDS011;43451;49.060;10.616;2023-03-14T04:48:38;0.65;;;0.40;;
57627;SDS011;43451;49.060;10.616;2023-03-14T04:51:03;0.57;;;0.30;;
57627;SDS011;43451;49.060;10.616;2023-03-14T04:53:32;0.50;;;0.40;;
57627;SDS011;43451;49.060;10.616;2023-03-14T04:55:59;0.80;;;0.30;;
57627;SDS011;43451;49.060;10.616;2023-03-14T04:58:24;1.77;;;0.82;;
57627;SDS011;43451;49.060;10.616;2023-03-14T05:00:50;0.55;;;0.40;;
57627;SDS011;43451;49.060;10.616;2023-03-14T05:03:16;0.40;;;0.40;;
57627;SDS011;43451;49.060;10.616;2023-03-14T05:05:42;0.77;;;0.50;;
57627;SDS011;43451;49.060;10.616;2023-03-14T05:08:08;0.70;;;0.50;;
57627;SDS011;43451;49.060;10.616;2023-03-14T05:10:34;0.80;;;0.60;;
57627;SDS011;43451;49.060;10.616;2023-03-14T05:12:59;0.70;;;0.70;;
57627;SDS011;43451;49.060;10.616;2023-03-14T05:15:25;0.90;;;0.80;;
57627;SDS011;43451;49.060;10.616;2023-03-14T05:17:50;0.90;;;0.75;;
57627;SDS011;43451;49.060;10.616;2023-03-14T05:20:15;0.50;;;0.50;;
57627;SDS011;43451;49.060;10.616;2023-03-14T05:22:41;0.63;;;0.60;;
57627;SDS011;43451;49.060;10.616;2023-03-14T05:25:07;1.88;;;0.60;;
57627;SDS011;43451;49.060;10.616;2023-03-14T05:27:34;1.30;;;0.65;;
57627;SDS011;43451;49.060;10.616;2023-03-14T05:30:01;0.63;;;0.63;;
57627;SDS011;43451;49.060;10.616;2023-03-14T05:32:28;1.77;;;0.70;;
57627;SDS011;43451;49.060;10.616;2023-03-14T05:34:55;1.88;;;0.70;;
57627;SDS011;43451;49.060;10.616;2023-03-14T05:37:24;0.82;;;0.70;;
57627;SDS011;43451;49.060;10.616;2023-03-14T05:39:52;1.30;;;0.70;;
57627;SDS011;43451;49.060;10.616;2023-03-14T05:42:17;0.75;;;0.75;;
57627;SDS011;43451;49.060;10.616;2023-03-14T05:44:43;0.70;;;0.70;;
57627;SDS011;43451;49.060;10.616;2023-03-14T05:47:08;0.93;;;0.80;;
57627;SDS011;43451;49.060;10.616;2023-03-14T05:49:34;2.03;;;0.82;;
57627;SDS011;43451;49.060;10.616;2023-03-14T05:52:00;1.20;;;1.10;;
57627;SDS011;43451;49.060;10.616;2023-03-14T05:54:25;1.20;;;1.05;;
57627;SDS011;43451;49.060;10.616;2023-03-14T05:56:51;1.23;;;1.13;;
57627;SDS011;43451;49.060;10.616;2023-03-14T05:59:16;1.70;;;1.30;;
57627;SDS011;43451;49.060;10.616;2023-03-14T06:01:41;1.75;;;1.50;;
57627;SDS011;43451;49.060;10.616;2023-03-14T06:04:07;2.40;;;1.50;;
57627;SDS011;43451;49.060;10.616;2023-03-14T06:06:32;2.20;;;1.73;;
57627;SDS011;43451;49.060;10.616;2023-03-14T06:08:58;1.60;;;1.50;;
57627;SDS011;43451;49.060;10.616;2023-03-14T06:11:23;1.60;;;1.50;;
57627;SDS011;43451;49.060;10.616;2023-03-14T06:13:49;1.60;;;1.50;;
57627;SDS011;43451;49.060;10.616;2023-03-14T06:16:14;2.22;;;1.67;;
57627;SDS011;43451;49.060;10.616;2023-03-14T06:18:39;2.60;;;1.60;;
57627;SDS011;43451;49.060;10.616;2023-03-14T06:21:05;2.63;;;1.70;;
57627;SDS011;43451;49.060;10.616;2023-03-14T06:23:31;2.58;;;1.73;;
57627;SDS011;43451;49.060;10.616;2023-03-14T06:25:57;1.70;;;1.60;;
57627;SDS011;43451;49.060;10.616;2023-03-14T06:28:22;2.05;;;1.73;;
57627;SDS011;43451;49.060;10.616;2023-03-14T06:30:48;2.42;;;1.80;;
57627;SDS011;43451;49.060;10.616;2023-03-14T06:33:13;1.85;;;1.73;;
57627;SDS011;43451;49.060;10.616;2023-03-14T06:35:39;1.70;;;1.60;;
57627;SDS011;43451;49.060;10.616;2023-03-14T06:38:04;2.53;;;1.52;;
57627;SDS011;43451;49.060;10.616;2023-03-14T06:40:29;2.28;;;1.73;;
57627;SDS011;43451;49.060;10.616;2023-03-14T06:42:55;2.03;;;1.33;;
57627;SDS011;43451;49.060;10.616;2023-03-14T06:45:20;1.80;;;1.60;;
57627;SDS011;43451;49.060;10.616;2023-03-14T06:47:46;1.88;;;1.45;;
57627;SDS011;43451;49.060;10.616;2023-03-14T06:50:11;1.88;;;1.25;;
57627;SDS011;43451;49.060;10.616;2023-03-14T06:52:36;2.38;;;1.30;;
57627;SDS011;43451;49.060;10.616;2023-03-14T06:55:02;2.03;;;1.40;;
57627;SDS011;43451;49.060;10.616;2023-03-14T06:57:28;2.40;;;1.40;;
57627;SDS011;43451;49.060;10.616;2023-03-14T06:59:54;1.88;;;1.30;;
57627;SDS011;43451;49.060;10.616;2023-03-14T07:02:19;1.98;;;1.30;;
57627;SDS011;43451;49.060;10.616;2023-03-14T07:04:45;1.30;;;1.20;;
57627;SDS011;43451;49.060;10.616;2023-03-14T07:07:10;1.92;;;1.40;;
57627;SDS011;43451;49.060;10.616;2023-03-14T07:09:36;1.50;;;1.33;;
57627;SDS011;43451;49.060;10.616;2023-03-14T07:12:02;1.30;;;1.00;;
57627;SDS011;43451;49.060;10.616;2023-03-14T07:14:29;0.98;;;0.93;;
57627;SDS011;43451;49.060;10.616;2023-03-14T07:16:54;0.85;;;0.82;;
57627;SDS011;43451;49.060;10.616;2023-03-14T07:22:29;1.48;;;1.20;;
57627;SDS011;43451;49.060;10.616;2023-03-14T07:24:55;1.27;;;0.90;;
57627;SDS011;43451;49.060;10.616;2023-03-14T07:27:20;1.52;;;0.90;;
57627;SDS011;43451;49.060;10.616;2023-03-14T07:29:46;1.10;;;0.90;;
57627;SDS011;43451;49.060;10.616;2023-03-14T07:32:11;0.80;;;0.70;;
57627;SDS011;43451;49.060;10.616;2023-03-14T07:37:05;1.35;;;1.00;;
57627;SDS011;43451;49.060;10.616;2023-03-14T07:39:30;2.22;;;0.90;;
57627;SDS011;43451;49.060;10.616;2023-03-14T07:42:03;1.05;;;0.82;;
57627;SDS011;43451;49.060;10.616;2023-03-14T07:44:28;1.48;;;1.00;;
57627;SDS011;43451;49.060;10.616;2023-03-14T07:46:54;1.38;;;0.95;;
57627;SDS011;43451;49.060;10.616;2023-03-14T07:49:19;2.47;;;0.85;;
57627;SDS011;43451;49.060;10.616;2023-03-14T07:51:47;2.20;;;1.10;;
57627;SDS011;43451;49.060;10.616;2023-03-14T07:54:13;1.60;;;0.93;;
57627;SDS011;43451;49.060;10.616;2023-03-14T07:56:38;1.40;;;0.60;;
57627;SDS011;43451;49.060;10.616;2023-03-14T07:59:04;0.95;;;0.77;;
57627;SDS011;43451;49.060;10.616;2023-03-14T08:01:29;2.17;;;0.60;;
57627;SDS011;43451;49.060;10.616;2023-03-14T08:03:54;0.90;;;0.60;;
57627;SDS011;43451;49.060;10.616;2023-03-14T08:06:20;1.00;;;0.70;;
57627;SDS011;43451;49.060;10.616;2023-03-14T08:08:45;0.68;;;0.50;;
57627;SDS011;43451;49.060;10.616;2023-03-14T08:11:11;1.60;;;0.60;;
57627;SDS011;43451;49.060;10.616;2023-03-14T08:13:37;0.93;;;0.60;;
57627;SDS011;43451;49.060;10.616;2023-03-14T08:16:03;1.27;;;0.63;;
57627;SDS011;43451;49.060;10.616;2023-03-14T08:18:29;2.63;;;0.77;;
57627;SDS011;43451;49.060;10.616;2023-03-14T08:20:55;2.22;;;0.52;;
57627;SDS011;43451;49.060;10.616;2023-03-14T08:23:20;1.55;;;0.65;;
57627;SDS011;43451;49.060;10.616;2023-03-14T08:25:48;0.75;;;0.57;;
57627;SDS011;43451;49.060;10.616;2023-03-14T08:28:15;1.25;;;0.60;;
57627;SDS011;43451;49.060;10.616;2023-03-14T08:30:40;1.05;;;0.70;;
57627;SDS011;43451;49.060;10.616;2023-03-14T08:33:06;1.00;;;0.70;;
57627;SDS011;43451;49.060;10.616;2023-03-14T08:35:31;0.98;;;0.50;;
57627;SDS011;43451;49.060;10.616;2023-03-14T08:37:57;0.80;;;0.57;;
57627;SDS011;43451;49.060;10.616;2023-03-14T08:40:22;0.82;;;0.60;;
57627;SDS011;43451;49.060;10.616;2023-03-14T08:42:48;1.13;;;0.52;;
57627;SDS011;43451;49.060;10.616;2023-03-14T08:45:14;1.33;;;0.65;;
57627;SDS011;43451;49.060;10.616;2023-03-14T08:47:43;1.02;;;0.52;;
57627;SDS011;43451;49.060;10.616;2023-03-14T08:50:12;1.55;;;0.57;;
57627;SDS011;43451;49.060;10.616;2023-03-14T08:52:38;2.67;;;0.50;;
57627;SDS011;43451;49.060;10.616;2023-03-14T08:55:05;1.67;;;0.57;;
57627;SDS011;43451;49.060;10.616;2023-03-14T08:57:33;1.92;;;0.60;;
57627;SDS011;43451;49.060;10.616;2023-03-14T08:59:58;3.88;;;3.33;;
57627;SDS011;43451;49.060;10.616;2023-03-14T09:02:24;1.67;;;0.68;;
57627;SDS011;43451;49.060;10.616;2023-03-14T09:04:50;1.25;;;0.70;;
57627;SDS011;43451;49.060;10.616;2023-03-14T09:07:16;1.63;;;0.70;;
57627;SDS011;43451;49.060;10.616;2023-03-14T09:09:42;0.60;;;0.50;;
57627;SDS011;43451;49.060;10.616;2023-03-14T09:12:07;3.92;;;0.60;;
57627;SDS011;43451;49.060;10.616;2023-03-14T09:14:33;1.58;;;0.70;;
57627;SDS011;43451;49.060;10.616;2023-03-14T09:16:58;1.90;;;0.73;;
57627;SDS011;43451;49.060;10.616;2023-03-14T09:19:24;0.60;;;0.50;;
57627;SDS011;43451;49.060;10.616;2023-03-14T09:21:49;1.63;;;0.80;;
57627;SDS011;43451;49.060;10.616;2023-03-14T09:24:15;4.43;;;0.70;;
57627;SDS011;43451;49.060;10.616;2023-03-14T09:26:42;1.63;;;0.70;;
57627;SDS011;43451;49.060;10.616;2023-03-14T09:29:07;0.52;;;0.50;;
57627;SDS011;43451;49.060;10.616;2023-03-14T09:31:33;1.88;;;0.55;;
57627;SDS011;43451;49.060;10.616;2023-03-14T09:33:58;0.68;;;0.40;;
57627;SDS011;43451;49.060;10.616;2023-03-14T09:36:24;0.98;;;0.52;;
57627;SDS011;43451;49.060;10.616;2023-03-14T09:38:50;0.80;;;0.60;;
57627;SDS011;43451;49.060;10.616;2023-03-14T09:43:42;1.47;;;0.60;;
57627;SDS011;43451;49.060;10.616;2023-03-14T09:46:11;4.72;;;0.60;;
57627;SDS011;43451;49.060;10.616;2023-03-14T09:48:39;1.10;;;0.50;;
57627;SDS011;43451;49.060;10.616;2023-03-14T09:51:06;1.92;;;0.80;;
57627;SDS011;43451;49.060;10.616;2023-03-14T09:56:29;0.70;;;0.60;;
57627;SDS011;43451;49.060;10.616;2023-03-14T09:58:57;0.75;;;0.50;;
57627;SDS011;43451;49.060;10.616;2023-03-14T10:01:30;2.78;;;0.40;;
57627;SDS011;43451;49.060;10.616;2023-03-14T10:03:58;0.95;;;0.30;;
57627;SDS011;43451;49.060;10.616;2023-03-14T10:06:28;0.43;;;0.30;;
57627;SDS011;43451;49.060;10.616;2023-03-14T10:11:22;1.50;;;0.30;;
57627;SDS011;43451;49.060;10.616;2023-03-14T10:16:32;2.10;;;0.40;;
57627;SDS011;43451;49.060;10.616;2023-03-14T10:19:03;1.85;;;0.40;;
57627;SDS011;43451;49.060;10.616;2023-03-14T10:21:35;1.60;;;0.43;;
57627;SDS011;43451;49.060;10.616;2023-03-14T10:24:08;2.08;;;0.40;;
57627;SDS011;43451;49.060;10.616;2023-03-14T10:26:42;1.38;;;0.40;;
57627;SDS011;43451;49.060;10.616;2023-03-14T10:29:09;1.95;;;0.50;;
57627;SDS011;43451;49.060;10.616;2023-03-14T10:31:57;1.40;;;0.30;;
57627;SDS011;43451;49.060;10.616;2023-03-14T10:34:30;0.47;;;0.30;;
57627;SDS011;43451;49.060;10.616;2023-03-14T10:39:51;1.88;;;0.50;;
57627;SDS011;43451;49.060;10.616;2023-03-14T10:44:51;1.67;;;0.32;;
57627;SDS011;43451;49.060;10.616;2023-03-14T10:47:22;0.88;;;0.40;;
57627;SDS011;43451;49.060;10.616;2023-03-14T10:49:49;5.30;;;1.15;;
57627;SDS011;43451;49.060;10.616;2023-03-14T10:54:58;0.63;;;0.30;;
57627;SDS011;43451;49.060;10.616;2023-03-14T10:57:26;1.33;;;0.40;;
57627;SDS011;43451;49.060;10.616;2023-03-14T10:59:52;0.30;;;0.30;;
57627;SDS011;43451;49.060;10.616;2023-03-14T11:07:44;3.10;;;0.30;;
57627;SDS011;43451;49.060;10.616;2023-03-14T11:21:13;1.27;;;0.50;;
57627;SDS011;43451;49.060;10.616;2023-03-14T11:23:41;0.22;;;0.20;;
57627;SDS011;43451;49.060;10.616;2023-03-14T11:28:38;0.93;;;0.30;;
57627;SDS011;43451;49.060;10.616;2023-03-14T11:36:24;0.70;;;0.30;;
57627;SDS011;43451;49.060;10.616;2023-03-14T11:38:56;0.30;;;0.30;;
57627;SDS011;43451;49.060;10.616;2023-03-14T11:41:25;0.50;;;0.30;;
57627;SDS011;43451;49.060;10.616;2023-03-14T11:43:55;0.68;;;0.40;;
57627;SDS011;43451;49.060;10.616;2023-03-14T11:46:27;0.52;;;0.30;;
57627;SDS011;43451;49.060;10.616;2023-03-14T11:51:44;0.40;;;0.20;;
57627;SDS011;43451;49.060;10.616;2023-03-14T11:54:14;0.20;;;0.20;;
57627;SDS011;43451;49.060;10.616;2023-03-14T11:56:55;0.28;;;0.20;;
57627;SDS011;43451;49.060;10.616;2023-03-14T11:59:26;0.20;;;0.20;;
57627;SDS011;43451;49.060;10.616;2023-03-14T12:02:02;0.20;;;0.20;;
57627;SDS011;43451;49.060;10.616;2023-03-14T12:04:42;0.20;;;0.20;;
57627;SDS011;43451;49.060;10.616;2023-03-14T12:07:20;0.30;;;0.28;;
57627;SDS011;43451;49.060;10.616;2023-03-14T12:10:03;0.85;;;0.30;;
57627;SDS011;43451;49.060;10.616;2023-03-14T12:12:29;0.20;;;0.20;;
57627;SDS011;43451;49.060;10.616;2023-03-14T12:14:59;0.65;;;0.30;;
57627;SDS011;43451;49.060;10.616;2023-03-14T12:17:52;0.30;;;0.30;;
57627;SDS011;43451;49.060;10.616;2023-03-14T12:20:19;1.45;;;0.30;;
57627;SDS011;43451;49.060;10.616;2023-03-14T12:22:54;0.57;;;0.20;;
57627;SDS011;43451;49.060;10.616;2023-03-14T12:25:22;0.30;;;0.30;;
57627;SDS011;43451;49.060;10.616;2023-03-14T12:30:30;0.50;;;0.20;;
57627;SDS011;43451;49.060;10.616;2023-03-14T12:35:45;1.08;;;0.20;;
57627;SDS011;43451;49.060;10.616;2023-03-14T12:40:52;0.32;;;0.32;;
57627;SDS011;43451;49.060;10.616;2023-03-14T12:49:02;0.30;;;0.30;;
57627;SDS011;43451;49.060;10.616;2023-03-14T12:51:35;0.70;;;0.32;;
57627;SDS011;43451;49.060;10.616;2023-03-14T13:01:47;0.30;;;0.30;;
57627;SDS011;43451;49.060;10.616;2023-03-14T13:04:18;2.17;;;0.40;;
57627;SDS011;43451;49.060;10.616;2023-03-14T13:06:55;1.25;;;0.30;;
57627;SDS011;43451;49.060;10.616;2023-03-14T13:12:03;0.32;;;0.30;;
57627;SDS011;43451;49.060;10.616;2023-03-14T13:14:35;1.30;;;0.40;;
57627;SDS011;43451;49.060;10.616;2023-03-14T13:17:09;0.40;;;0.30;;
57627;SDS011;43451;49.060;10.616;2023-03-14T13:19:39;0.30;;;0.30;;
57627;SDS011;43451;49.060;10.616;2023-03-14T13:22:06;1.48;;;0.47;;
57627;SDS011;43451;49.060;10.616;2023-03-14T13:24:44;1.17;;;0.38;;
57627;SDS011;43451;49.060;10.616;2023-03-14T13:27:19;0.47;;;0.30;;
57627;SDS011;43451;49.060;10.616;2023-03-14T13:29:48;1.15;;;0.50;;
57627;SDS011;43451;49.060;10.616;2023-03-14T13:32:22;0.30;;;0.30;;
57627;SDS011;43451;49.060;10.616;2023-03-14T13:34:55;0.30;;;0.30;;
57627;SDS011;43451;49.060;10.616;2023-03-14T13:37:22;0.95;;;0.30;;
57627;SDS011;43451;49.060;10.616;2023-03-14T13:39:51;0.43;;;0.30;;
57627;SDS011;43451;49.060;10.616;2023-03-14T13:42:18;0.50;;;0.30;;
57627;SDS011;43451;49.060;10.616;2023-03-14T13:44:44;0.30;;;0.30;;
57627;SDS011;43451;49.060;10.616;2023-03-14T13:47:18;0.28;;;0.28;;
57627;SDS011;43451;49.060;10.616;2023-03-14T13:49:45;0.40;;;0.40;;
57627;SDS011;43451;49.060;10.616;2023-03-14T13:55:02;0.30;;;0.30;;
57627;SDS011;43451;49.060;10.616;2023-03-14T13:57:45;0.28;;;0.28;;
57627;SDS011;43451;49.060;10.616;2023-03-14T14:00:19;0.40;;;0.30;;
57627;SDS011;43451;49.060;10.616;2023-03-14T14:02:47;0.30;;;0.28;;
57627;SDS011;43451;49.060;10.616;2023-03-14T14:05:13;0.60;;;0.30;;
57627;SDS011;43451;49.060;10.616;2023-03-14T14:07:39;0.85;;;0.40;;
57627;SDS011;43451;49.060;10.616;2023-03-14T14:10:09;1.20;;;0.60;;
57627;SDS011;43451;49.060;10.616;2023-03-14T14:12:37;0.70;;;0.70;;
57627;SDS011;43451;49.060;10.616;2023-03-14T14:15:14;0.90;;;0.80;;
57627;SDS011;43451;49.060;10.616;2023-03-14T14:18:07;2.22;;;1.10;;
57627;SDS011;43451;49.060;10.616;2023-03-14T14:20:38;2.10;;;1.10;;
57627;SDS011;43451;49.060;10.616;2023-03-14T14:23:09;2.78;;;1.50;;
57627;SDS011;43451;49.060;10.616;2023-03-14T14:25:37;2.28;;;1.40;;
57627;SDS011;43451;49.060;10.616;2023-03-14T14:28:17;2.22;;;1.25;;
57627;SDS011;43451;49.060;10.616;2023-03-14T14:33:28;3.53;;;1.42;;
57627;SDS011;43451;49.060;10.616;2023-03-14T14:35:57;2.40;;;1.30;;
57627;SDS011;43451;49.060;10.616;2023-03-14T14:38:25;1.80;;;1.30;;
57627;SDS011;43451;49.060;10.616;2023-03-14T14:40:51;1.88;;;1.20;;
57627;SDS011;43451;49.060;10.616;2023-03-14T14:43:22;2.75;;;1.20;;
57627;SDS011;43451;49.060;10.616;2023-03-14T14:45:50;2.05;;;1.02;;
57627;SDS011;43451;49.060;10.616;2023-03-14T14:53:22;2.38;;;1.10;;
57627;SDS011;43451;49.060;10.616;2023-03-14T14:56:06;2.10;;;0.70;;
57627;SDS011;43451;49.060;10.616;2023-03-14T15:03:43;4.28;;;0.70;;
57627;SDS011;43451;49.060;10.616;2023-03-14T15:06:11;2.97;;;0.60;;
57627;SDS011;43451;49.060;10.616;2023-03-14T15:08:38;5.05;;;0.70;;
57627;SDS011;43451;49.060;10.616;2023-03-14T15:11:04;0.68;;;0.50;;
57627;SDS011;43451;49.060;10.616;2023-03-14T15:13:30;2.63;;;0.70;;
57627;SDS011;43451;49.060;10.616;2023-03-14T15:15:55;2.75;;;0.50;;
57627;SDS011;43451;49.060;10.616;2023-03-14T15:18:25;1.08;;;0.68;;
57627;SDS011;43451;49.060;10.616;2023-03-14T15:20:53;2.42;;;0.50;;
57627;SDS011;43451;49.060;10.616;2023-03-14T15:23:19;1.92;;;0.75;;
57627;SDS011;43451;49.060;10.616;2023-03-14T15:25:46;0.68;;;0.50;;
57627;SDS011;43451;49.060;10.616;2023-03-14T15:28:16;2.75;;;0.55;;
57627;SDS011;43451;49.060;10.616;2023-03-14T15:30:51;2.13;;;0.70;;
57627;SDS011;43451;49.060;10.616;2023-03-14T15:35:43;2.53;;;0.70;;
57627;SDS011;43451;49.060;10.616;2023-03-14T15:38:13;2.08;;;0.68;;
57627;SDS011;43451;49.060;10.616;2023-03-14T15:40:46;2.70;;;0.68;;
57627;SDS011;43451;49.060;10.616;2023-03-14T15:43:11;1.83;;;0.60;;
57627;SDS011;43451;49.060;10.616;2023-03-14T15:45:37;2.40;;;0.70;;
57627;SDS011;43451;49.060;10.616;2023-03-14T15:48:02;2.33;;;0.68;;
57627;SDS011;43451;49.060;10.616;2023-03-14T15:50:28;1.50;;;0.60;;
57627;SDS011;43451;49.060;10.616;2023-03-14T15:52:54;2.20;;;0.50;;
57627;SDS011;43451;49.060;10.616;2023-03-14T15:55:20;1.77;;;0.50;;
57627;SDS011;43451;49.060;10.616;2023-03-14T15:57:46;0.95;;;0.60;;
57627;SDS011;43451;49.060;10.616;2023-03-14T16:00:13;2.47;;;0.60;;
57627;SDS011;43451;49.060;10.616;2023-03-14T16:02:42;3.95;;;0.60;;
57627;SDS011;43451;49.060;10.616;2023-03-14T16:05:09;1.27;;;0.65;;
57627;SDS011;43451;49.060;10.616;2023-03-14T16:07:34;1.00;;;0.60;;
57627;SDS011;43451;49.060;10.616;2023-03-14T16:10:00;1.42;;;0.60;;
57627;SDS011;43451;49.060;10.616;2023-03-14T16:12:26;3.78;;;0.75;;
57627;SDS011;43451;49.060;10.616;2023-03-14T16:14:51;2.38;;;0.85;;
57627;SDS011;43451;49.060;10.616;2023-03-14T16:17:17;2.58;;;0.80;;